createdAt,value
2023-03-27T00:00:01.769Z,9.6
2023-03-27T00:01:01.748Z,9.6
2023-03-27T00:02:01.521Z,9.5
2023-03-27T00:03:01.590Z,9.6
2023-03-27T00:04:01.615Z,9.7
2023-03-27T00:05:01.685Z,9.7
2023-03-27T00:06:01.457Z,9.6
2023-03-27T00:07:01.502Z,9.5
2023-03-27T00:08:01.350Z,9.5
2023-03-27T00:09:01.394Z,9.5
2023-03-27T00:10:01.307Z,9.5
2023-03-27T00:11:01.423Z,9.5
2023-03-27T00:12:01.356Z,9.6
2023-03-27T00:13:01.457Z,9.4
2023-03-27T00:14:01.346Z,9.5
2023-03-27T00:15:01.377Z,9.6
2023-03-27T00:16:02.303Z,9.6
2023-03-27T00:17:01.980Z,9.5
2023-03-27T00:18:02.053Z,9.5
2023-03-27T00:19:01.865Z,9.5
2023-03-27T00:20:01.823Z,9.5
2023-03-27T00:21:01.914Z,9.5
2023-03-27T00:22:01.771Z,9.5
2023-03-27T00:23:01.826Z,9.5
2023-03-27T00:24:01.689Z,9.4
2023-03-27T00:25:01.763Z,9.6
2023-03-27T00:26:01.615Z,9.5
2023-03-27T00:27:01.637Z,9.5
2023-03-27T00:28:01.569Z,9.4
2023-03-27T00:29:01.587Z,9.4
2023-03-27T00:30:01.435Z,9.3
2023-03-27T00:31:01.501Z,9.4
2023-03-27T00:32:02.292Z,9.3
2023-03-27T00:33:02.302Z,9.3
2023-03-27T00:34:02.339Z,9.3
2023-03-27T00:35:02.209Z,9.3
2023-03-27T00:36:02.287Z,9.2
2023-03-27T00:37:02.225Z,9.3
2023-03-27T00:38:02.237Z,9.3
2023-03-27T00:39:02.189Z,9.3
2023-03-27T00:40:02.272Z,9.3
2023-03-27T00:41:02.276Z,9.3
2023-03-27T00:42:02.267Z,9.3
2023-03-27T00:43:02.228Z,9.4
2023-03-27T00:44:02.342Z,9.3
2023-03-27T00:45:02.303Z,9.2
2023-03-27T00:46:01.382Z,9.2
2023-03-27T00:47:02.294Z,9.1
2023-03-27T00:48:02.351Z,9.1
2023-03-27T00:49:02.314Z,9.3
2023-03-27T00:50:02.283Z,9.2
2023-03-27T00:51:02.368Z,9.3
2023-03-27T00:52:02.285Z,9.1
2023-03-27T00:53:01.418Z,9.2
2023-03-27T00:54:02.345Z,9.2
2023-03-27T00:55:02.273Z,9.3
2023-03-27T00:56:02.413Z,9.2
2023-03-27T00:57:02.387Z,9.2
2023-03-27T00:58:02.375Z,9.3
2023-03-27T00:59:02.277Z,9.4
2023-03-27T01:00:02.372Z,9.4
2023-03-27T01:01:02.339Z,9.4
2023-03-27T01:02:01.834Z,9.4
2023-03-27T01:03:01.924Z,9.3
2023-03-27T01:04:01.808Z,9.3
2023-03-27T01:05:01.801Z,9.4
2023-03-27T01:06:01.925Z,9.5
2023-03-27T01:07:01.845Z,9.4
2023-03-27T01:08:02.074Z,9.4
2023-03-27T01:09:02.007Z,9.4
2023-03-27T01:10:01.943Z,9.3
2023-03-27T01:11:01.931Z,9.3
2023-03-27T01:12:02.044Z,9.4
2023-03-27T01:13:01.949Z,9.4
2023-03-27T01:14:01.981Z,9.5
2023-03-27T01:15:02.028Z,9.4
2023-03-27T01:16:01.943Z,9.3
2023-03-27T01:17:01.427Z,9.3
2023-03-27T01:18:01.496Z,9.2
2023-03-27T01:19:01.368Z,9.3
2023-03-27T01:20:01.468Z,9.3
2023-03-27T01:21:01.308Z,9.3
2023-03-27T01:22:01.379Z,9.1
2023-03-27T01:23:02.358Z,9.1
2023-03-27T01:24:02.309Z,9
2023-03-27T01:25:01.336Z,9.1
2023-03-27T01:26:02.405Z,9.2
2023-03-27T01:27:01.303Z,9.1
2023-03-27T01:28:01.423Z,9.1
2023-03-27T01:29:01.294Z,9
2023-03-27T01:30:02.404Z,9.1
2023-03-27T01:31:01.302Z,9
2023-03-27T01:32:01.653Z,9
2023-03-27T01:33:01.781Z,9
2023-03-27T01:34:01.634Z,9
2023-03-27T01:35:03.424Z,9.1
2023-03-27T01:36:02.427Z,9
2023-03-27T01:37:01.382Z,8.9
2023-03-27T01:38:01.413Z,9.1
2023-03-27T01:39:01.376Z,9.1
2023-03-27T01:40:01.440Z,9.2
2023-03-27T01:41:01.339Z,9.2
2023-03-27T01:42:01.432Z,9.1
2023-03-27T01:43:01.358Z,8.9
2023-03-27T01:44:01.346Z,9.1
2023-03-27T01:45:01.294Z,8.8
2023-03-27T01:46:02.359Z,9.1
2023-03-27T01:47:01.540Z,9.1
2023-03-27T01:48:01.565Z,9
2023-03-27T01:49:01.482Z,9
2023-03-27T01:50:01.483Z,8.9
2023-03-27T01:51:01.369Z,9
2023-03-27T01:52:01.511Z,9.1
2023-03-27T01:53:01.378Z,9.2
2023-03-27T01:54:01.534Z,9.2
2023-03-27T01:55:01.392Z,9.3
2023-03-27T01:56:01.420Z,9.3
2023-03-27T01:57:01.350Z,9.3
2023-03-27T01:58:01.417Z,9.2
2023-03-27T01:59:01.285Z,9.1
2023-03-27T02:00:17.220Z,9.1
2023-03-27T02:01:02.264Z,9.1
2023-03-27T02:02:01.919Z,9.2
2023-03-27T02:03:02.022Z,9.2
2023-03-27T02:04:01.886Z,9.2
2023-03-27T02:05:01.882Z,9.2
2023-03-27T02:06:01.941Z,9.1
2023-03-27T02:07:01.840Z,9.1
2023-03-27T02:08:01.811Z,9.1
2023-03-27T02:09:01.886Z,9.2
2023-03-27T02:10:01.769Z,9
2023-03-27T02:11:01.843Z,9
2023-03-27T02:12:01.732Z,9.1
2023-03-27T02:13:01.794Z,9
2023-03-27T02:14:01.652Z,9.1
2023-03-27T02:15:22.306Z,9
2023-03-27T02:16:02.215Z,8.9
2023-03-27T02:17:01.767Z,8.8
2023-03-27T02:18:01.871Z,8.9
2023-03-27T02:19:01.729Z,8.7
2023-03-27T02:20:01.771Z,8.8
2023-03-27T02:21:01.613Z,8.8
2023-03-27T02:22:01.714Z,8.8
2023-03-27T02:23:01.837Z,8.8
2023-03-27T02:24:01.659Z,8.8
2023-03-27T02:25:01.730Z,8.7
2023-03-27T02:26:01.557Z,8.7
2023-03-27T02:27:01.606Z,8.6
2023-03-27T02:28:01.507Z,8.7
2023-03-27T02:29:01.581Z,8.8
2023-03-27T02:30:01.505Z,8.8
2023-03-27T02:31:05.338Z,8.8
2023-03-27T02:32:01.402Z,8.7
2023-03-27T02:33:01.515Z,8.8
2023-03-27T02:34:01.467Z,8.8
2023-03-27T02:35:01.369Z,8.8
2023-03-27T02:36:01.391Z,8.7
2023-03-27T02:37:01.425Z,8.9
2023-03-27T02:38:01.369Z,8.9
2023-03-27T02:39:01.429Z,8.9
2023-03-27T02:40:01.403Z,8.9
2023-03-27T02:41:01.434Z,8.9
2023-03-27T02:42:01.405Z,8.9
2023-03-27T02:43:01.423Z,8.9
2023-03-27T02:44:01.338Z,8.9
2023-03-27T02:45:01.421Z,8.8
2023-03-27T02:46:01.406Z,8.9
2023-03-27T02:47:01.820Z,8.9
2023-03-27T02:48:01.897Z,8.8
2023-03-27T02:49:01.761Z,8.8
2023-03-27T02:50:01.852Z,8.8
2023-03-27T02:51:01.701Z,8.7
2023-03-27T02:52:01.802Z,8.7
2023-03-27T02:53:01.654Z,8.7
2023-03-27T02:54:01.758Z,8.7
2023-03-27T02:55:01.634Z,8.7
2023-03-27T02:56:01.755Z,8.7
2023-03-27T02:57:01.633Z,8.7
2023-03-27T02:58:01.683Z,8.6
2023-03-27T02:59:01.572Z,8.7
2023-03-27T03:00:02.757Z,8.7
2023-03-27T03:01:01.665Z,8.6
2023-03-27T03:02:01.869Z,8.6
2023-03-27T03:03:01.991Z,8.6
2023-03-27T03:04:02.038Z,8.5
2023-03-27T03:05:02.041Z,8.5
2023-03-27T03:06:02.136Z,8.5
2023-03-27T03:07:02.014Z,8.6
2023-03-27T03:08:02.029Z,8.6
2023-03-27T03:09:02.137Z,8.6
2023-03-27T03:10:02.029Z,8.6
2023-03-27T03:11:02.046Z,8.5
2023-03-27T03:12:02.138Z,8.5
2023-03-27T03:13:02.060Z,8.5
2023-03-27T03:14:02.053Z,8.5
2023-03-27T03:15:02.158Z,8.5
2023-03-27T03:16:02.039Z,8.5
2023-03-27T03:17:02.223Z,8.4
2023-03-27T03:18:01.370Z,8.5
2023-03-27T03:19:02.323Z,8.4
2023-03-27T03:20:02.301Z,8.4
2023-03-27T03:21:02.377Z,8.5
2023-03-27T03:22:02.262Z,8.5
2023-03-27T03:23:02.364Z,8.4
2023-03-27T03:24:02.303Z,8.4
2023-03-27T03:25:02.309Z,8.4
2023-03-27T03:26:02.319Z,8.3
2023-03-27T03:27:02.358Z,8.4
2023-03-27T03:28:02.294Z,8.5
2023-03-27T03:29:02.381Z,8.4
2023-03-27T03:30:02.283Z,8.4
2023-03-27T03:31:02.368Z,8.4
2023-03-27T03:32:01.664Z,8.4
2023-03-27T03:33:01.799Z,8.3
2023-03-27T03:34:01.724Z,8.5
2023-03-27T03:35:01.841Z,8.3
2023-03-27T03:36:01.661Z,8.4
2023-03-27T03:37:01.743Z,8.4
2023-03-27T03:38:01.614Z,8.4
2023-03-27T03:39:01.703Z,8.4
2023-03-27T03:40:01.599Z,8.4
2023-03-27T03:41:01.720Z,8.3
2023-03-27T03:42:01.625Z,8.3
2023-03-27T03:43:01.709Z,8.3
2023-03-27T03:44:01.586Z,8.3
2023-03-27T03:45:01.701Z,8.2
2023-03-27T03:46:01.628Z,8.2
2023-03-27T03:47:01.922Z,8.2
2023-03-27T03:48:02.081Z,8.2
2023-03-27T03:49:01.964Z,8.3
2023-03-27T03:50:01.954Z,8.2
2023-03-27T03:51:02.030Z,8.3
2023-03-27T03:52:03.157Z,8.3
2023-03-27T03:53:01.607Z,8.3
2023-03-27T03:54:01.677Z,8.2
2023-03-27T03:55:01.488Z,8.4
2023-03-27T03:56:01.592Z,8.3
2023-03-27T03:57:01.473Z,8.3
2023-03-27T03:58:01.740Z,8.3
2023-03-27T03:59:01.670Z,8.3
2023-03-27T04:00:02.342Z,8.3
2023-03-27T04:01:02.171Z,8.2
2023-03-27T04:02:01.906Z,8.2
2023-03-27T04:03:01.961Z,8.2
2023-03-27T04:04:01.852Z,8.2
2023-03-27T04:05:08.526Z,8.1
2023-03-27T04:06:02.216Z,8.2
2023-03-27T04:07:02.314Z,8.2
2023-03-27T04:08:02.189Z,8.2
2023-03-27T04:09:02.315Z,8.2
2023-03-27T04:10:02.232Z,8.1
2023-03-27T04:11:02.327Z,8.1
2023-03-27T04:12:02.234Z,8.1
2023-03-27T04:13:02.360Z,8.1
2023-03-27T04:14:02.243Z,8.1
2023-03-27T04:15:02.375Z,8.1
2023-03-27T04:16:02.313Z,8.1
2023-03-27T04:17:01.688Z,8.2
2023-03-27T04:18:01.904Z,8.2
2023-03-27T04:19:02.057Z,8.2
2023-03-27T04:20:02.037Z,8.1
2023-03-27T04:21:02.157Z,8.1
2023-03-27T04:22:02.034Z,8.2
2023-03-27T04:23:02.093Z,8.2
2023-03-27T04:24:01.992Z,8.2
2023-03-27T04:25:01.352Z,8.1
2023-03-27T04:26:01.487Z,8.1
2023-03-27T04:27:01.684Z,8
2023-03-27T04:28:01.574Z,8
2023-03-27T04:29:01.535Z,8
2023-03-27T04:30:01.567Z,8
2023-03-27T04:31:01.466Z,8
2023-03-27T04:32:01.794Z,8
2023-03-27T04:33:02.039Z,8
2023-03-27T04:34:02.269Z,8
2023-03-27T04:35:02.187Z,8
2023-03-27T04:36:05.738Z,8
2023-03-27T04:37:02.037Z,8
2023-03-27T04:38:02.151Z,7.9
2023-03-27T04:39:02.029Z,8
2023-03-27T04:40:02.015Z,8
2023-03-27T04:41:02.087Z,8
2023-03-27T04:42:01.980Z,8
2023-03-27T04:43:01.961Z,8
2023-03-27T04:44:01.983Z,7.9
2023-03-27T04:45:01.940Z,7.9
2023-03-27T04:46:01.977Z,7.9
2023-03-27T04:47:02.187Z,7.9
2023-03-27T04:48:02.252Z,7.9
2023-03-27T04:49:02.270Z,7.9
2023-03-27T04:50:02.193Z,7.9
2023-03-27T04:51:02.154Z,7.9
2023-03-27T04:52:02.189Z,7.9
2023-03-27T04:53:02.140Z,7.9
2023-03-27T04:54:02.197Z,7.9
2023-03-27T04:55:02.099Z,7.9
2023-03-27T04:56:02.007Z,8
2023-03-27T04:57:01.996Z,7.9
2023-03-27T04:58:01.875Z,7.9
2023-03-27T04:59:01.918Z,7.9
2023-03-27T05:00:03.009Z,7.9
2023-03-27T05:01:01.915Z,7.9
2023-03-27T05:02:01.429Z,7.9
2023-03-27T05:03:01.481Z,7.9
2023-03-27T05:04:01.538Z,7.9
2023-03-27T05:05:01.489Z,7.9
2023-03-27T05:06:01.383Z,7.9
2023-03-27T05:07:01.415Z,7.9
2023-03-27T05:08:02.380Z,7.9
2023-03-27T05:09:02.253Z,7.9
2023-03-27T05:10:02.335Z,7.7
2023-03-27T05:11:02.236Z,7.9
2023-03-27T05:12:02.301Z,7.8
2023-03-27T05:13:02.155Z,8
2023-03-27T05:14:01.932Z,8
2023-03-27T05:15:01.793Z,8
2023-03-27T05:16:01.825Z,8
2023-03-27T05:17:02.104Z,7.9
2023-03-27T05:18:02.231Z,8
2023-03-27T05:19:02.063Z,7.9
2023-03-27T05:20:02.133Z,8
2023-03-27T05:21:02.005Z,8
2023-03-27T05:22:02.046Z,7.9
2023-03-27T05:23:01.916Z,7.9
2023-03-27T05:24:01.849Z,7.9
2023-03-27T05:25:01.793Z,7.9
2023-03-27T05:26:01.840Z,8
2023-03-27T05:27:01.700Z,8
2023-03-27T05:28:01.760Z,8
2023-03-27T05:29:01.652Z,8
2023-03-27T05:30:01.652Z,7.9
2023-03-27T05:31:01.563Z,7.9
2023-03-27T05:32:01.946Z,8
2023-03-27T05:33:02.025Z,8
2023-03-27T05:34:01.905Z,8
2023-03-27T05:35:01.877Z,8
2023-03-27T05:36:01.958Z,8
2023-03-27T05:37:01.818Z,8
2023-03-27T05:38:01.782Z,7.9
2023-03-27T05:39:01.797Z,7.9
2023-03-27T05:40:01.665Z,8
2023-03-27T05:41:01.714Z,8
2023-03-27T05:42:01.566Z,8
2023-03-27T05:43:01.625Z,8.1
2023-03-27T05:44:01.441Z,8
2023-03-27T05:45:01.491Z,8
2023-03-27T05:46:01.342Z,8
2023-03-27T05:47:01.639Z,8.1
2023-03-27T05:48:01.730Z,8.1
2023-03-27T05:49:01.652Z,8.2
2023-03-27T05:50:01.680Z,8.1
2023-03-27T05:51:01.528Z,8.1
2023-03-27T05:52:01.535Z,8.1
2023-03-27T05:53:01.374Z,8.1
2023-03-27T05:54:01.438Z,8.1
2023-03-27T05:55:01.308Z,8.1
2023-03-27T05:56:03.497Z,8
2023-03-27T05:57:01.363Z,8
2023-03-27T05:58:02.387Z,8
2023-03-27T05:59:02.244Z,8
2023-03-27T06:00:02.780Z,7.9
2023-03-27T06:01:01.661Z,8
2023-03-27T06:02:02.297Z,8
2023-03-27T06:03:02.416Z,8
2023-03-27T06:04:01.600Z,8.1
2023-03-27T06:05:01.580Z,8
2023-03-27T06:06:01.426Z,7.9
2023-03-27T06:07:01.496Z,8
2023-03-27T06:08:01.333Z,8.1
2023-03-27T06:09:01.416Z,8
2023-03-27T06:10:01.284Z,8.1
2023-03-27T06:11:02.322Z,8
2023-03-27T06:12:02.213Z,8.1
2023-03-27T06:13:02.249Z,8.1
2023-03-27T06:14:02.138Z,8.1
2023-03-27T06:15:02.184Z,8.1
2023-03-27T06:16:02.167Z,8.1
2023-03-27T06:17:01.709Z,8.2
2023-03-27T06:18:01.802Z,8.1
2023-03-27T06:19:01.630Z,8.1
2023-03-27T06:20:01.649Z,8.2
2023-03-27T06:21:01.490Z,8.2
2023-03-27T06:22:01.528Z,8.2
2023-03-27T06:23:01.431Z,8.1
2023-03-27T06:24:01.454Z,8.1
2023-03-27T06:25:01.330Z,8.1
2023-03-27T06:26:02.365Z,8
2023-03-27T06:27:02.232Z,8.1
2023-03-27T06:28:02.238Z,8.1
2023-03-27T06:29:02.188Z,8.1
2023-03-27T06:30:01.505Z,7.9
2023-03-27T06:31:01.564Z,8.1
2023-03-27T06:32:01.651Z,8.1
2023-03-27T06:33:01.661Z,8.2
2023-03-27T06:34:01.542Z,8.1
2023-03-27T06:35:01.557Z,8.2
2023-03-27T06:36:01.452Z,8.1
2023-03-27T06:37:01.428Z,8.1
2023-03-27T06:38:01.338Z,8.2
2023-03-27T06:39:01.466Z,8.2
2023-03-27T06:40:02.408Z,8.2
2023-03-27T06:41:02.254Z,8.2
2023-03-27T06:42:02.295Z,8.3
2023-03-27T06:43:02.150Z,8.2
2023-03-27T06:44:02.252Z,8.3
2023-03-27T06:45:02.119Z,8.3
2023-03-27T06:46:02.191Z,8.3
2023-03-27T06:47:01.980Z,8.2
2023-03-27T06:48:13.665Z,8.2
2023-03-27T06:49:02.305Z,8.2
2023-03-27T06:50:02.133Z,8.2
2023-03-27T06:51:02.215Z,8.2
2023-03-27T06:52:02.088Z,8.2
2023-03-27T06:53:03.031Z,8.2
2023-03-27T06:54:01.950Z,8.1
2023-03-27T06:55:01.893Z,8.2
2023-03-27T06:56:01.993Z,8.2
2023-03-27T06:57:01.876Z,8.2
2023-03-27T06:58:01.732Z,8.3
2023-03-27T06:59:01.821Z,8.2
2023-03-27T07:00:02.837Z,8.1
2023-03-27T07:01:01.623Z,8.1
2023-03-27T07:02:01.510Z,8.1
2023-03-27T07:03:01.548Z,8.1
2023-03-27T07:04:01.370Z,8.1
2023-03-27T07:05:04.600Z,8
2023-03-27T07:06:02.319Z,8.1
2023-03-27T07:07:02.242Z,8.1
2023-03-27T07:08:11.218Z,8
2023-03-27T07:09:01.933Z,8
2023-03-27T07:10:01.952Z,8
2023-03-27T07:11:11.190Z,8
2023-03-27T07:12:01.311Z,8.1
2023-03-27T07:13:02.364Z,8.1
2023-03-27T07:14:02.304Z,8
2023-03-27T07:15:02.343Z,7.9
2023-03-27T07:16:02.210Z,8
2023-03-27T07:17:01.396Z,8
2023-03-27T07:18:01.487Z,8
2023-03-27T07:19:02.505Z,8
2023-03-27T07:20:01.528Z,8
2023-03-27T07:21:01.530Z,7.9
2023-03-27T07:22:01.365Z,7.9
2023-03-27T07:23:01.424Z,7.9
2023-03-27T07:24:01.344Z,8
2023-03-27T07:25:01.381Z,8
2023-03-27T07:26:02.345Z,8
2023-03-27T07:27:02.244Z,8
2023-03-27T07:28:03.731Z,8
2023-03-27T07:29:01.941Z,8
2023-03-27T07:30:01.972Z,8
2023-03-27T07:31:01.806Z,8.1
2023-03-27T07:32:04.464Z,7.9
2023-03-27T07:33:02.112Z,7.8
2023-03-27T07:34:02.232Z,7.9
2023-03-27T07:35:02.400Z,7.9
2023-03-27T07:36:02.275Z,7.9
2023-03-27T07:37:02.344Z,7.9
2023-03-27T07:38:02.185Z,7.9
2023-03-27T07:39:02.246Z,7.9
2023-03-27T07:40:02.080Z,7.9
2023-03-27T07:41:02.149Z,8
2023-03-27T07:42:02.293Z,7.9
2023-03-27T07:43:02.085Z,8
2023-03-27T07:44:01.939Z,8
2023-03-27T07:45:04.111Z,8
2023-03-27T07:46:02.321Z,8.1
2023-03-27T07:47:01.578Z,8.1
2023-03-27T07:48:01.786Z,8.1
2023-03-27T07:49:01.584Z,8.1
2023-03-27T07:50:01.595Z,8.1
2023-03-27T07:52:01.729Z,7.9
2023-03-27T07:53:01.701Z,8
2023-03-27T07:54:01.607Z,8
2023-03-27T07:55:01.590Z,8
2023-03-27T07:56:01.444Z,7.9
2023-03-27T07:57:01.566Z,7.9
2023-03-27T07:58:03.084Z,7.9
2023-03-27T07:59:01.718Z,7.9
2023-03-27T08:00:03.182Z,7.9
2023-03-27T08:01:02.566Z,8
2023-03-27T08:02:01.452Z,7.9
2023-03-27T08:03:01.626Z,7.9
2023-03-27T08:04:01.810Z,7.9
2023-03-27T08:05:02.060Z,7.9
2023-03-27T08:06:02.192Z,8
2023-03-27T08:07:02.091Z,8
2023-03-27T08:08:02.137Z,7.9
2023-03-27T08:09:02.905Z,7.9
2023-03-27T08:10:01.841Z,7.8
2023-03-27T08:11:01.894Z,7.8
2023-03-27T08:12:01.784Z,7.8
2023-03-27T08:13:01.737Z,7.8
2023-03-27T08:14:01.597Z,7.8
2023-03-27T08:15:01.667Z,7.6
2023-03-27T08:16:01.521Z,7.6
2023-03-27T08:17:12.655Z,7.7
2023-03-27T08:18:02.259Z,7.6
2023-03-27T08:19:02.321Z,7.5
2023-03-27T08:20:02.212Z,7.6
2023-03-27T08:21:02.246Z,7.6
2023-03-27T08:22:02.110Z,7.6
2023-03-27T08:23:02.126Z,7.6
2023-03-27T08:24:01.983Z,7.5
2023-03-27T08:25:01.915Z,7.6
2023-03-27T08:26:01.973Z,7.5
2023-03-27T08:27:01.882Z,7.6
2023-03-27T08:28:01.849Z,7.7
2023-03-27T08:29:02.013Z,7.7
2023-03-27T08:30:01.810Z,7.6
2023-03-27T08:31:02.327Z,7.7
2023-03-27T08:32:01.519Z,7.7
2023-03-27T08:33:01.620Z,7.7
2023-03-27T08:34:01.512Z,7.7
2023-03-27T08:35:01.384Z,7.6
2023-03-27T08:36:01.305Z,7.4
2023-03-27T08:37:02.374Z,7.5
2023-03-27T08:38:02.224Z,7.6
2023-03-27T08:39:02.248Z,7.6
2023-03-27T08:40:02.176Z,7.5
2023-03-27T08:41:02.198Z,7.5
2023-03-27T08:42:02.056Z,7.2
2023-03-27T08:43:02.104Z,7.3
2023-03-27T08:44:01.941Z,7.1
2023-03-27T08:45:01.973Z,7.1
2023-03-27T08:46:01.887Z,7.3
2023-03-27T08:47:01.509Z,7.2
2023-03-27T08:48:01.615Z,7
2023-03-27T08:49:01.553Z,6.8
2023-03-27T08:50:01.609Z,6.6
2023-03-27T08:51:01.553Z,6.8
2023-03-27T08:52:01.437Z,6.7
2023-03-27T08:53:01.324Z,6.8
2023-03-27T08:54:01.406Z,6.6
2023-03-27T08:55:02.315Z,6.4
2023-03-27T08:56:02.283Z,6.5
2023-03-27T08:57:02.368Z,6.5
2023-03-27T08:58:02.217Z,6.2
2023-03-27T08:59:02.245Z,6.1
2023-03-27T09:00:02.440Z,6.3
2023-03-27T09:01:01.500Z,6.3
2023-03-27T09:02:01.732Z,6.2
2023-03-27T09:03:01.777Z,6
2023-03-27T09:04:01.713Z,6
2023-03-27T09:05:01.885Z,6.2
2023-03-27T09:06:02.209Z,6
2023-03-27T09:07:02.105Z,5.9
2023-03-27T09:08:02.151Z,6
2023-03-27T09:09:02.018Z,5.9
2023-03-27T09:10:01.945Z,5.8
2023-03-27T09:11:01.996Z,5.8
2023-03-27T09:12:02.231Z,5.9
2023-03-27T09:13:02.099Z,5.9
2023-03-27T09:14:02.175Z,5.9
2023-03-27T09:15:02.018Z,5.7
2023-03-27T09:16:02.091Z,5.8
2023-03-27T09:17:01.800Z,5.5
2023-03-27T09:18:01.883Z,5.7
2023-03-27T09:19:01.865Z,5.6
2023-03-27T09:20:01.700Z,5.7
2023-03-27T09:21:01.765Z,5.7
2023-03-27T09:22:01.611Z,5.5
2023-03-27T09:23:01.662Z,5.3
2023-03-27T09:24:01.524Z,5.5
2023-03-27T09:25:01.525Z,5.5
2023-03-27T09:26:01.372Z,5.2
2023-03-27T09:27:07.396Z,5.3
2023-03-27T09:28:01.305Z,5.2
2023-03-27T09:29:02.367Z,5.1
2023-03-27T09:30:05.134Z,5.2
2023-03-27T09:31:02.083Z,5.1
2023-03-27T09:32:02.150Z,4.9
2023-03-27T09:33:02.060Z,5
2023-03-27T09:34:02.065Z,5.1
2023-03-27T09:35:01.945Z,5.1
2023-03-27T09:36:01.902Z,5.7
2023-03-27T09:37:01.890Z,5.6
2023-03-27T09:38:01.733Z,5.3
2023-03-27T09:39:01.772Z,5.4
2023-03-27T09:40:01.676Z,5.4
2023-03-27T09:41:01.767Z,5.3
2023-03-27T09:42:06.770Z,5.3
2023-03-27T09:43:01.662Z,5.5
2023-03-27T09:44:01.761Z,5.1
2023-03-27T09:45:01.546Z,5.1
2023-03-27T09:46:01.530Z,5.1
2023-03-27T09:47:01.351Z,5
2023-03-27T09:48:02.385Z,4.9
2023-03-27T09:49:02.267Z,4.8
2023-03-27T09:50:02.336Z,4.9
2023-03-27T09:51:02.234Z,4.8
2023-03-27T09:52:02.268Z,4.6
2023-03-27T09:53:02.129Z,4.5
2023-03-27T09:54:02.149Z,4.5
2023-03-27T09:55:02.074Z,4.6
2023-03-27T09:56:03.383Z,4.6
2023-03-27T09:57:02.296Z,4.5
2023-03-27T09:58:02.230Z,4.6
2023-03-27T09:59:02.287Z,4.5
2023-03-27T10:00:02.136Z,4.5
2023-03-27T10:01:02.213Z,4.5
2023-03-27T10:02:01.920Z,4.5
2023-03-27T10:03:02.110Z,4.3
2023-03-27T10:04:02.185Z,4.5
2023-03-27T10:05:02.144Z,4.6
2023-03-27T10:06:02.199Z,4.3
2023-03-27T10:07:02.062Z,4.2
2023-03-27T10:08:02.090Z,4.2
2023-03-27T10:09:01.931Z,4.1
2023-03-27T10:10:01.917Z,4.1
2023-03-27T10:11:01.932Z,4.3
2023-03-27T10:12:01.782Z,4.3
2023-03-27T10:13:01.758Z,4.3
2023-03-27T10:14:01.592Z,4
2023-03-27T10:15:01.832Z,4.2
2023-03-27T10:16:01.532Z,4.2
2023-03-27T10:17:01.503Z,4.3
2023-03-27T10:18:01.533Z,4.1
2023-03-27T10:19:01.350Z,4.1
2023-03-27T10:20:01.346Z,4.1
2023-03-27T10:21:02.271Z,4.1
2023-03-27T10:22:02.190Z,3.9
2023-03-27T10:23:02.314Z,4
2023-03-27T10:24:02.238Z,3.8
2023-03-27T10:25:02.229Z,4
2023-03-27T10:26:02.153Z,4
2023-03-27T10:27:02.200Z,4.1
2023-03-27T10:28:02.050Z,4.1
2023-03-27T10:29:02.119Z,4.2
2023-03-27T10:30:01.955Z,4.1
2023-03-27T10:31:01.914Z,4
2023-03-27T10:32:01.838Z,3.8
2023-03-27T10:33:01.941Z,3.8
2023-03-27T10:34:02.024Z,3.8
2023-03-27T10:35:01.960Z,3.9
2023-03-27T10:36:02.022Z,3.7
2023-03-27T10:37:01.854Z,3.7
2023-03-27T10:38:01.800Z,3.6
2023-03-27T10:39:01.852Z,3.7
2023-03-27T10:40:01.703Z,3.8
2023-03-27T10:41:01.711Z,4
2023-03-27T10:42:01.505Z,3.9
2023-03-27T10:43:01.538Z,3.9
2023-03-27T10:44:01.441Z,3.9
2023-03-27T10:45:01.431Z,3.8
2023-03-27T10:46:01.318Z,3.7
2023-03-27T10:47:01.446Z,3.7
2023-03-27T10:48:01.487Z,3.7
2023-03-27T10:49:01.369Z,3.7
2023-03-27T10:50:01.381Z,3.8
2023-03-27T10:51:02.346Z,3.5
2023-03-27T10:52:02.190Z,3.5
2023-03-27T10:53:02.265Z,3.7
2023-03-27T10:54:02.203Z,3.7
2023-03-27T10:55:02.387Z,3.6
2023-03-27T10:56:02.199Z,3.6
2023-03-27T10:57:02.272Z,3.6
2023-03-27T10:58:01.344Z,3.6
2023-03-27T10:59:01.374Z,3.8
2023-03-27T11:00:02.345Z,3.7
2023-03-27T11:01:02.317Z,3.8
2023-03-27T11:02:02.130Z,3.8
2023-03-27T11:03:02.196Z,3.9
2023-03-27T11:04:02.076Z,3.8
2023-03-27T11:05:02.066Z,3.8
2023-03-27T11:06:01.913Z,3.8
2023-03-27T11:07:01.870Z,3.7
2023-03-27T11:08:01.946Z,3.9
2023-03-27T11:09:01.731Z,3.9
2023-03-27T11:10:01.885Z,3.8
2023-03-27T11:11:01.583Z,4
2023-03-27T11:12:01.655Z,3.8
2023-03-27T11:13:01.517Z,4
2023-03-27T11:14:01.542Z,4
2023-03-27T11:15:01.355Z,3.7
2023-03-27T11:16:01.425Z,3.9
2023-03-27T11:17:02.066Z,3.7
2023-03-27T11:18:02.031Z,3.9
2023-03-27T11:19:01.953Z,3.9
2023-03-27T11:20:01.883Z,4
2023-03-27T11:21:01.830Z,3.9
2023-03-27T11:22:01.865Z,4
2023-03-27T11:23:01.726Z,4
2023-03-27T11:24:01.785Z,4
2023-03-27T11:25:01.641Z,4.1
2023-03-27T11:26:01.662Z,4.3
2023-03-27T11:27:01.497Z,4
2023-03-27T11:28:01.911Z,4
2023-03-27T11:29:01.553Z,4
2023-03-27T11:30:01.558Z,4.1
2023-03-27T11:31:12.050Z,4
2023-03-27T11:32:02.289Z,4.1
2023-03-27T11:33:02.360Z,4.1
2023-03-27T11:34:02.241Z,4.2
2023-03-27T11:35:04.188Z,4.2
2023-03-27T11:36:02.172Z,4.2
2023-03-27T11:37:02.203Z,4.2
2023-03-27T11:38:02.050Z,4.3
2023-03-27T11:39:02.104Z,4.2
2023-03-27T11:40:01.987Z,4.3
2023-03-27T11:41:02.023Z,4.3
2023-03-27T11:42:01.888Z,4.2
2023-03-27T11:43:01.440Z,4.3
2023-03-27T11:44:01.488Z,4.1
2023-03-27T11:45:01.358Z,4.2
2023-03-27T11:46:01.416Z,4
2023-03-27T11:47:02.376Z,3.9
2023-03-27T11:48:02.282Z,4.1
2023-03-27T11:49:02.381Z,4.2
2023-03-27T11:50:02.217Z,4
2023-03-27T11:51:02.282Z,4.1
2023-03-27T11:52:02.250Z,4
2023-03-27T11:53:02.144Z,4
2023-03-27T11:54:02.092Z,3.9
2023-03-27T11:55:02.173Z,4
2023-03-27T11:56:01.981Z,4.1
2023-03-27T11:57:01.961Z,4
2023-03-27T11:58:02.024Z,3.9
2023-03-27T11:59:01.863Z,3.9
2023-03-27T12:00:01.990Z,3.8
2023-03-27T12:01:02.045Z,3.9
2023-03-27T12:02:01.649Z,4.1
2023-03-27T12:03:01.742Z,4.1
2023-03-27T12:04:01.895Z,4.2
2023-03-27T12:05:01.761Z,4.3
2023-03-27T12:06:01.839Z,4.3
2023-03-27T12:07:04.753Z,4.3
2023-03-27T12:08:02.059Z,4.2
2023-03-27T12:09:02.112Z,4.2
2023-03-27T12:10:01.974Z,4.2
2023-03-27T12:11:01.908Z,4.2
2023-03-27T12:12:01.907Z,4.2
2023-03-27T12:13:01.804Z,4.2
2023-03-27T12:14:02.720Z,4.1
2023-03-27T12:15:01.475Z,4.3
2023-03-27T12:16:01.518Z,4
2023-03-27T12:17:02.303Z,3.9
2023-03-27T12:18:02.287Z,4
2023-03-27T12:19:06.122Z,4
2023-03-27T12:20:01.904Z,4.1
2023-03-27T12:21:02.040Z,3.9
2023-03-27T12:22:03.835Z,4.1
2023-03-27T12:23:01.372Z,3.9
2023-03-27T12:24:01.419Z,3.9
2023-03-27T12:25:02.386Z,3.9
2023-03-27T12:26:02.242Z,4
2023-03-27T12:27:02.305Z,4
2023-03-27T12:28:02.147Z,4.2
2023-03-27T12:29:02.255Z,3.9
2023-03-27T12:30:01.936Z,4.1
2023-03-27T12:31:01.995Z,4.2
2023-03-27T12:32:01.638Z,4.1
2023-03-27T12:33:01.679Z,4
2023-03-27T12:34:01.497Z,3.8
2023-03-27T12:35:01.442Z,3.9
2023-03-27T12:36:01.325Z,4
2023-03-27T12:37:02.376Z,4
2023-03-27T12:38:02.242Z,3.9
2023-03-27T12:39:02.300Z,3.9
2023-03-27T12:40:02.154Z,4
2023-03-27T12:41:02.205Z,4
2023-03-27T12:42:02.046Z,4
2023-03-27T12:43:02.096Z,4.1
2023-03-27T12:44:01.954Z,4.1
2023-03-27T12:45:01.889Z,4.1
2023-03-27T12:46:02.142Z,4
2023-03-27T12:47:01.344Z,3.8
2023-03-27T12:48:01.400Z,4
2023-03-27T12:49:02.411Z,3.9
2023-03-27T12:50:02.250Z,4
2023-03-27T12:51:02.276Z,4
2023-03-27T12:52:02.168Z,4.1
2023-03-27T12:53:02.238Z,4
2023-03-27T12:54:02.106Z,4.1
2023-03-27T12:55:02.172Z,4.1
2023-03-27T12:56:02.017Z,4
2023-03-27T12:57:02.115Z,4
2023-03-27T12:58:02.198Z,3.8
2023-03-27T12:59:01.584Z,3.9
2023-03-27T13:00:01.600Z,3.9
2023-03-27T13:01:01.532Z,3.9
2023-03-27T13:02:01.402Z,4.1
2023-03-27T13:03:01.450Z,4
2023-03-27T13:04:01.365Z,4
2023-03-27T13:05:01.533Z,4.1
2023-03-27T13:06:01.379Z,4
2023-03-27T13:07:01.401Z,4
2023-03-27T13:08:02.385Z,4
2023-03-27T13:09:02.223Z,4.1
2023-03-27T13:10:02.286Z,3.9
2023-03-27T13:11:02.156Z,3.9
2023-03-27T13:12:02.201Z,3.7
2023-03-27T13:13:02.072Z,3.8
2023-03-27T13:14:02.101Z,3.9
2023-03-27T13:15:02.035Z,3.8
2023-03-27T13:16:02.027Z,3.8
2023-03-27T13:17:01.885Z,3.7
2023-03-27T13:18:01.963Z,3.7
2023-03-27T13:19:01.798Z,3.7
2023-03-27T13:20:01.696Z,3.7
2023-03-27T13:21:01.760Z,3.7
2023-03-27T13:22:01.618Z,3.6
2023-03-27T13:23:01.672Z,3.7
2023-03-27T13:24:01.528Z,3.7
2023-03-27T13:25:01.523Z,3.6
2023-03-27T13:26:01.383Z,3.8
2023-03-27T13:27:01.435Z,3.8
2023-03-27T13:28:02.424Z,3.8
2023-03-27T13:29:02.299Z,3.9
2023-03-27T13:30:02.381Z,3.7
2023-03-27T13:31:02.169Z,3.7
2023-03-27T13:32:02.290Z,3.7
2023-03-27T13:33:02.328Z,3.8
2023-03-27T13:34:02.201Z,3.8
2023-03-27T13:35:02.238Z,3.8
2023-03-27T13:36:02.174Z,3.8
2023-03-27T13:37:06.182Z,3.8
2023-03-27T13:38:01.960Z,3.7
2023-03-27T13:39:02.003Z,3.8
2023-03-27T13:40:01.820Z,3.8
2023-03-27T13:41:01.791Z,3.8
2023-03-27T13:42:02.564Z,3.8
2023-03-27T13:43:01.446Z,3.7
2023-03-27T13:44:01.634Z,3.8
2023-03-27T13:45:01.621Z,3.8
2023-03-27T13:46:01.473Z,3.8
2023-03-27T13:47:01.485Z,3.7
2023-03-27T13:48:01.523Z,3.8
2023-03-27T13:49:01.304Z,3.6
2023-03-27T13:50:02.374Z,3.8
2023-03-27T13:51:02.271Z,3.9
2023-03-27T13:52:02.294Z,3.9
2023-03-27T13:53:02.207Z,4
2023-03-27T13:54:02.135Z,4.1
2023-03-27T13:55:02.204Z,4.1
2023-03-27T13:56:02.068Z,4
2023-03-27T13:57:02.075Z,3.9